sensor_id;sensor_type;location;lat;lon;timestamp;P1;durP1;ratioP1;P2;durP2;ratioP2
7045;SDS011;3564;53.326;10.356;2023-04-12T00:02:17;6.10;;;2.93;;
7045;SDS011;3564;53.326;10.356;2023-04-12T00:04:43;5.53;;;2.97;;
7045;SDS011;3564;53.326;10.356;2023-04-12T00:07:08;6.57;;;2.97;;
7045;SDS011;3564;53.326;10.356;2023-04-12T00:09:34;3.33;;;2.60;;
7045;SDS011;3564;53.326;10.356;2023-04-12T00:12:00;3.43;;;2.67;;
7045;SDS011;3564;53.326;10.356;2023-04-12T00:14:27;3.03;;;2.30;;
7045;SDS011;3564;53.326;10.356;2023-04-12T00:16:53;2.90;;;2.60;;
7045;SDS011;3564;53.326;10.356;2023-04-12T00:19:18;5.20;;;2.80;;
7045;SDS011;3564;53.326;10.356;2023-04-12T00:21:47;4.23;;;2.50;;
7045;SDS011;3564;53.326;10.356;2023-04-12T00:24:12;2.57;;;2.37;;
7045;SDS011;3564;53.326;10.356;2023-04-12T00:26:38;5.63;;;2.57;;
7045;SDS011;3564;53.326;10.356;2023-04-12T00:29:04;2.70;;;2.50;;
7045;SDS011;3564;53.326;10.356;2023-04-12T00:31:29;4.73;;;3.00;;
7045;SDS011;3564;53.326;10.356;2023-04-12T00:33:58;3.40;;;2.47;;
7045;SDS011;3564;53.326;10.356;2023-04-12T00:36:26;3.93;;;2.90;;
7045;SDS011;3564;53.326;10.356;2023-04-12T00:38:52;2.70;;;2.33;;
7045;SDS011;3564;53.326;10.356;2023-04-12T00:41:18;3.23;;;2.40;;
7045;SDS011;3564;53.326;10.356;2023-04-12T00:43:43;3.43;;;2.40;;
7045;SDS011;3564;53.326;10.356;2023-04-12T00:46:12;7.07;;;3.00;;
7045;SDS011;3564;53.326;10.356;2023-04-12T00:48:37;3.40;;;2.63;;
7045;SDS011;3564;53.326;10.356;2023-04-12T00:51:05;3.40;;;2.90;;
7045;SDS011;3564;53.326;10.356;2023-04-12T00:53:31;4.77;;;2.70;;
7045;SDS011;3564;53.326;10.356;2023-04-12T00:55:58;4.17;;;2.70;;
7045;SDS011;3564;53.326;10.356;2023-04-12T00:58:23;3.90;;;2.80;;
7045;SDS011;3564;53.326;10.356;2023-04-12T01:00:49;4.50;;;2.97;;
7045;SDS011;3564;53.326;10.356;2023-04-12T01:03:19;6.60;;;3.33;;
7045;SDS011;3564;53.326;10.356;2023-04-12T01:14:53;4.93;;;2.63;;
7045;SDS011;3564;53.326;10.356;2023-04-12T01:17:51;5.37;;;2.90;;
7045;SDS011;3564;53.326;10.356;2023-04-12T01:20:30;7.23;;;3.07;;
7045;SDS011;3564;53.326;10.356;2023-04-12T01:23:12;6.10;;;3.90;;
7045;SDS011;3564;53.326;10.356;2023-04-12T01:28:23;6.33;;;3.33;;
7045;SDS011;3564;53.326;10.356;2023-04-12T01:31:02;7.27;;;3.60;;
7045;SDS011;3564;53.326;10.356;2023-04-12T01:33:31;4.90;;;3.40;;
7045;SDS011;3564;53.326;10.356;2023-04-12T01:36:00;7.03;;;3.53;;
7045;SDS011;3564;53.326;10.356;2023-04-12T01:38:30;5.30;;;2.93;;
7045;SDS011;3564;53.326;10.356;2023-04-12T01:40:56;5.63;;;3.53;;
7045;SDS011;3564;53.326;10.356;2023-04-12T01:43:22;4.37;;;3.47;;
7045;SDS011;3564;53.326;10.356;2023-04-12T01:45:48;4.80;;;3.40;;
7045;SDS011;3564;53.326;10.356;2023-04-12T01:48:17;5.97;;;3.43;;
7045;SDS011;3564;53.326;10.356;2023-04-12T01:53:42;6.17;;;3.20;;
7045;SDS011;3564;53.326;10.356;2023-04-12T01:56:14;3.67;;;2.70;;
7045;SDS011;3564;53.326;10.356;2023-04-12T01:58:42;4.27;;;2.77;;
7045;SDS011;3564;53.326;10.356;2023-04-12T02:01:09;6.67;;;2.70;;
7045;SDS011;3564;53.326;10.356;2023-04-12T02:03:38;4.73;;;2.93;;
7045;SDS011;3564;53.326;10.356;2023-04-12T02:06:06;3.97;;;2.50;;
7045;SDS011;3564;53.326;10.356;2023-04-12T02:08:32;4.30;;;2.53;;
7045;SDS011;3564;53.326;10.356;2023-04-12T02:10:58;3.80;;;2.37;;
7045;SDS011;3564;53.326;10.356;2023-04-12T02:13:24;2.83;;;2.10;;
7045;SDS011;3564;53.326;10.356;2023-04-12T02:15:50;4.97;;;2.20;;
7045;SDS011;3564;53.326;10.356;2023-04-12T02:18:18;3.20;;;2.13;;
7045;SDS011;3564;53.326;10.356;2023-04-12T02:20:44;5.50;;;2.63;;
7045;SDS011;3564;53.326;10.356;2023-04-12T02:23:10;3.60;;;2.47;;
7045;SDS011;3564;53.326;10.356;2023-04-12T02:25:36;5.00;;;2.13;;
7045;SDS011;3564;53.326;10.356;2023-04-12T02:28:03;3.43;;;2.10;;
7045;SDS011;3564;53.326;10.356;2023-04-12T02:30:30;5.87;;;2.40;;
7045;SDS011;3564;53.326;10.356;2023-04-12T02:32:56;4.13;;;3.13;;
7045;SDS011;3564;53.326;10.356;2023-04-12T02:35:22;4.33;;;2.60;;
7045;SDS011;3564;53.326;10.356;2023-04-12T02:37:49;5.50;;;3.00;;
7045;SDS011;3564;53.326;10.356;2023-04-12T02:40:15;4.27;;;2.37;;
7045;SDS011;3564;53.326;10.356;2023-04-12T02:42:41;5.03;;;3.07;;
7045;SDS011;3564;53.326;10.356;2023-04-12T02:45:07;4.43;;;2.80;;
7045;SDS011;3564;53.326;10.356;2023-04-12T02:47:34;5.83;;;2.67;;
7045;SDS011;3564;53.326;10.356;2023-04-12T02:49:59;4.20;;;2.33;;
7045;SDS011;3564;53.326;10.356;2023-04-12T02:52:29;5.37;;;2.70;;
7045;SDS011;3564;53.326;10.356;2023-04-12T02:54:54;3.30;;;2.40;;
7045;SDS011;3564;53.326;10.356;2023-04-12T02:57:20;3.63;;;2.87;;
7045;SDS011;3564;53.326;10.356;2023-04-12T02:59:47;4.77;;;2.97;;
7045;SDS011;3564;53.326;10.356;2023-04-12T03:02:16;3.83;;;2.80;;
7045;SDS011;3564;53.326;10.356;2023-04-12T03:04:42;3.70;;;2.57;;
7045;SDS011;3564;53.326;10.356;2023-04-12T03:07:15;4.67;;;2.83;;
7045;SDS011;3564;53.326;10.356;2023-04-12T03:09:45;4.83;;;2.60;;
7045;SDS011;3564;53.326;10.356;2023-04-12T03:12:11;4.50;;;2.60;;
7045;SDS011;3564;53.326;10.356;2023-04-12T03:14:38;4.13;;;2.67;;
7045;SDS011;3564;53.326;10.356;2023-04-12T03:17:03;5.70;;;2.40;;
7045;SDS011;3564;53.326;10.356;2023-04-12T03:19:29;4.97;;;2.57;;
7045;SDS011;3564;53.326;10.356;2023-04-12T03:22:03;6.63;;;2.80;;
7045;SDS011;3564;53.326;10.356;2023-04-12T03:24:29;2.97;;;2.20;;
7045;SDS011;3564;53.326;10.356;2023-04-12T03:26:58;4.70;;;2.50;;
7045;SDS011;3564;53.326;10.356;2023-04-12T03:29:24;4.10;;;2.30;;
7045;SDS011;3564;53.326;10.356;2023-04-12T03:31:52;3.30;;;2.30;;
7045;SDS011;3564;53.326;10.356;2023-04-12T03:34:18;2.60;;;2.13;;
7045;SDS011;3564;53.326;10.356;2023-04-12T03:36:43;2.80;;;2.20;;
7045;SDS011;3564;53.326;10.356;2023-04-12T03:39:10;4.77;;;2.27;;
7045;SDS011;3564;53.326;10.356;2023-04-12T03:41:35;3.67;;;1.97;;
7045;SDS011;3564;53.326;10.356;2023-04-12T03:44:01;6.73;;;2.00;;
7045;SDS011;3564;53.326;10.356;2023-04-12T03:46:26;3.80;;;2.40;;
7045;SDS011;3564;53.326;10.356;2023-04-12T03:48:52;3.37;;;1.97;;
7045;SDS011;3564;53.326;10.356;2023-04-12T03:51:18;4.33;;;2.20;;
7045;SDS011;3564;53.326;10.356;2023-04-12T03:53:46;3.70;;;1.77;;
7045;SDS011;3564;53.326;10.356;2023-04-12T03:56:11;4.73;;;2.13;;
7045;SDS011;3564;53.326;10.356;2023-04-12T03:58:38;6.10;;;2.10;;
7045;SDS011;3564;53.326;10.356;2023-04-12T04:01:04;5.43;;;1.90;;
7045;SDS011;3564;53.326;10.356;2023-04-12T04:03:30;3.77;;;2.00;;
7045;SDS011;3564;53.326;10.356;2023-04-12T04:05:58;2.50;;;1.97;;
7045;SDS011;3564;53.326;10.356;2023-04-12T04:08:27;3.43;;;1.80;;
7045;SDS011;3564;53.326;10.356;2023-04-12T04:10:55;4.47;;;2.00;;
7045;SDS011;3564;53.326;10.356;2023-04-12T04:13:21;6.20;;;2.13;;
7045;SDS011;3564;53.326;10.356;2023-04-12T04:15:49;2.67;;;2.10;;
7045;SDS011;3564;53.326;10.356;2023-04-12T04:18:28;5.90;;;2.30;;
7045;SDS011;3564;53.326;10.356;2023-04-12T04:20:57;4.03;;;2.20;;
7045;SDS011;3564;53.326;10.356;2023-04-12T04:23:23;4.33;;;2.50;;
7045;SDS011;3564;53.326;10.356;2023-04-12T04:25:49;6.77;;;2.37;;
7045;SDS011;3564;53.326;10.356;2023-04-12T04:28:17;6.70;;;2.30;;
7045;SDS011;3564;53.326;10.356;2023-04-12T04:30:43;3.57;;;2.23;;
7045;SDS011;3564;53.326;10.356;2023-04-12T04:33:10;3.73;;;1.80;;
7045;SDS011;3564;53.326;10.356;2023-04-12T04:35:38;3.83;;;1.90;;
7045;SDS011;3564;53.326;10.356;2023-04-12T04:38:04;4.73;;;1.83;;
7045;SDS011;3564;53.326;10.356;2023-04-12T04:40:35;4.23;;;1.73;;
7045;SDS011;3564;53.326;10.356;2023-04-12T04:43:01;3.53;;;1.97;;
7045;SDS011;3564;53.326;10.356;2023-04-12T04:45:27;4.97;;;2.20;;
7045;SDS011;3564;53.326;10.356;2023-04-12T04:47:53;3.20;;;2.10;;
7045;SDS011;3564;53.326;10.356;2023-04-12T04:50:22;4.23;;;2.17;;
7045;SDS011;3564;53.326;10.356;2023-04-12T04:52:48;2.77;;;1.90;;
7045;SDS011;3564;53.326;10.356;2023-04-12T04:55:18;4.73;;;2.13;;
7045;SDS011;3564;53.326;10.356;2023-04-12T04:57:48;4.13;;;2.00;;
7045;SDS011;3564;53.326;10.356;2023-04-12T05:00:14;4.57;;;2.00;;
7045;SDS011;3564;53.326;10.356;2023-04-12T05:02:40;3.10;;;2.00;;
7045;SDS011;3564;53.326;10.356;2023-04-12T05:05:10;5.60;;;2.20;;
7045;SDS011;3564;53.326;10.356;2023-04-12T05:07:37;2.47;;;2.00;;
7045;SDS011;3564;53.326;10.356;2023-04-12T05:10:03;3.80;;;2.20;;
7045;SDS011;3564;53.326;10.356;2023-04-12T05:12:29;2.57;;;1.90;;
7045;SDS011;3564;53.326;10.356;2023-04-12T05:14:58;12.37;;;2.33;;
7045;SDS011;3564;53.326;10.356;2023-04-12T05:17:24;3.47;;;2.20;;
7045;SDS011;3564;53.326;10.356;2023-04-12T05:19:49;2.87;;;2.17;;
7045;SDS011;3564;53.326;10.356;2023-04-12T05:22:15;4.27;;;2.07;;
7045;SDS011;3564;53.326;10.356;2023-04-12T05:24:44;3.97;;;2.10;;
7045;SDS011;3564;53.326;10.356;2023-04-12T05:27:10;2.37;;;1.80;;
7045;SDS011;3564;53.326;10.356;2023-04-12T05:29:35;6.00;;;2.30;;
7045;SDS011;3564;53.326;10.356;2023-04-12T05:32:04;2.40;;;1.90;;
7045;SDS011;3564;53.326;10.356;2023-04-12T05:34:33;2.57;;;1.87;;
7045;SDS011;3564;53.326;10.356;2023-04-12T05:36:58;2.97;;;1.93;;
7045;SDS011;3564;53.326;10.356;2023-04-12T05:39:27;5.10;;;2.17;;
7045;SDS011;3564;53.326;10.356;2023-04-12T05:41:53;4.10;;;2.50;;
7045;SDS011;3564;53.326;10.356;2023-04-12T05:44:18;5.47;;;2.20;;
7045;SDS011;3564;53.326;10.356;2023-04-12T05:46:44;5.90;;;2.50;;
7045;SDS011;3564;53.326;10.356;2023-04-12T05:49:09;3.10;;;1.87;;
7045;SDS011;3564;53.326;10.356;2023-04-12T05:51:35;3.40;;;2.13;;
7045;SDS011;3564;53.326;10.356;2023-04-12T05:54:00;2.73;;;1.90;;
7045;SDS011;3564;53.326;10.356;2023-04-12T05:56:36;3.83;;;2.00;;
7045;SDS011;3564;53.326;10.356;2023-04-12T05:59:01;3.17;;;2.20;;
7045;SDS011;3564;53.326;10.356;2023-04-12T06:01:28;4.77;;;2.23;;
7045;SDS011;3564;53.326;10.356;2023-04-12T06:03:57;3.87;;;2.27;;
7045;SDS011;3564;53.326;10.356;2023-04-12T06:06:22;2.83;;;2.00;;
7045;SDS011;3564;53.326;10.356;2023-04-12T06:08:51;6.73;;;2.60;;
7045;SDS011;3564;53.326;10.356;2023-04-12T06:11:17;3.97;;;2.50;;
7045;SDS011;3564;53.326;10.356;2023-04-12T06:13:43;6.13;;;2.80;;
7045;SDS011;3564;53.326;10.356;2023-04-12T06:16:09;4.23;;;2.40;;
7045;SDS011;3564;53.326;10.356;2023-04-12T06:18:35;3.77;;;2.47;;
7045;SDS011;3564;53.326;10.356;2023-04-12T06:21:01;6.27;;;3.03;;
7045;SDS011;3564;53.326;10.356;2023-04-12T06:23:27;3.97;;;2.40;;
7045;SDS011;3564;53.326;10.356;2023-04-12T06:25:52;4.53;;;2.70;;
7045;SDS011;3564;53.326;10.356;2023-04-12T06:28:20;4.47;;;2.20;;
7045;SDS011;3564;53.326;10.356;2023-04-12T06:30:46;4.90;;;2.10;;
7045;SDS011;3564;53.326;10.356;2023-04-12T06:33:12;4.87;;;2.73;;
7045;SDS011;3564;53.326;10.356;2023-04-12T06:35:37;5.77;;;2.50;;
7045;SDS011;3564;53.326;10.356;2023-04-12T06:38:03;3.70;;;2.03;;
7045;SDS011;3564;53.326;10.356;2023-04-12T06:40:28;4.03;;;2.17;;
7045;SDS011;3564;53.326;10.356;2023-04-12T06:42:54;3.73;;;2.30;;
7045;SDS011;3564;53.326;10.356;2023-04-12T06:45:20;5.83;;;2.50;;
7045;SDS011;3564;53.326;10.356;2023-04-12T06:47:49;4.43;;;2.60;;
7045;SDS011;3564;53.326;10.356;2023-04-12T06:50:14;3.23;;;2.10;;
7045;SDS011;3564;53.326;10.356;2023-04-12T06:52:40;4.50;;;2.30;;
7045;SDS011;3564;53.326;10.356;2023-04-12T06:55:05;2.40;;;1.90;;
7045;SDS011;3564;53.326;10.356;2023-04-12T06:57:31;3.90;;;2.23;;
7045;SDS011;3564;53.326;10.356;2023-04-12T06:59:57;2.70;;;2.07;;
7045;SDS011;3564;53.326;10.356;2023-04-12T07:02:24;5.33;;;2.30;;
7045;SDS011;3564;53.326;10.356;2023-04-12T07:04:52;3.73;;;2.17;;
7045;SDS011;3564;53.326;10.356;2023-04-12T07:07:18;4.33;;;2.20;;
7045;SDS011;3564;53.326;10.356;2023-04-12T07:09:47;3.60;;;2.20;;
7045;SDS011;3564;53.326;10.356;2023-04-12T07:12:12;3.83;;;2.40;;
7045;SDS011;3564;53.326;10.356;2023-04-12T07:14:38;6.70;;;2.73;;
7045;SDS011;3564;53.326;10.356;2023-04-12T07:17:04;3.00;;;2.07;;
7045;SDS011;3564;53.326;10.356;2023-04-12T07:19:30;5.20;;;2.23;;
7045;SDS011;3564;53.326;10.356;2023-04-12T07:21:56;3.60;;;2.27;;
7045;SDS011;3564;53.326;10.356;2023-04-12T07:24:22;5.80;;;2.60;;
7045;SDS011;3564;53.326;10.356;2023-04-12T07:26:47;3.03;;;2.30;;
7045;SDS011;3564;53.326;10.356;2023-04-12T07:29:13;2.57;;;2.23;;
7045;SDS011;3564;53.326;10.356;2023-04-12T07:31:39;2.87;;;2.00;;
7045;SDS011;3564;53.326;10.356;2023-04-12T07:34:05;3.23;;;2.10;;
7045;SDS011;3564;53.326;10.356;2023-04-12T07:36:31;3.03;;;2.40;;
7045;SDS011;3564;53.326;10.356;2023-04-12T07:38:56;3.67;;;2.30;;
7045;SDS011;3564;53.326;10.356;2023-04-12T07:41:25;3.03;;;1.97;;
7045;SDS011;3564;53.326;10.356;2023-04-12T07:43:51;8.40;;;2.37;;
7045;SDS011;3564;53.326;10.356;2023-04-12T07:46:16;4.87;;;2.43;;
7045;SDS011;3564;53.326;10.356;2023-04-12T07:48:42;4.13;;;2.63;;
7045;SDS011;3564;53.326;10.356;2023-04-12T07:51:11;3.23;;;2.10;;
7045;SDS011;3564;53.326;10.356;2023-04-12T07:53:37;3.93;;;2.50;;
7045;SDS011;3564;53.326;10.356;2023-04-12T07:56:08;3.10;;;2.07;;
7045;SDS011;3564;53.326;10.356;2023-04-12T07:58:34;4.37;;;2.27;;
7045;SDS011;3564;53.326;10.356;2023-04-12T08:00:59;5.17;;;2.27;;
7045;SDS011;3564;53.326;10.356;2023-04-12T08:03:28;4.17;;;2.43;;
7045;SDS011;3564;53.326;10.356;2023-04-12T08:05:53;5.63;;;2.40;;
7045;SDS011;3564;53.326;10.356;2023-04-12T08:08:19;5.20;;;2.60;;
7045;SDS011;3564;53.326;10.356;2023-04-12T08:10:46;4.30;;;2.17;;
7045;SDS011;3564;53.326;10.356;2023-04-12T08:13:11;6.97;;;2.37;;
7045;SDS011;3564;53.326;10.356;2023-04-12T08:15:40;4.20;;;2.33;;
7045;SDS011;3564;53.326;10.356;2023-04-12T08:18:10;2.93;;;1.97;;
7045;SDS011;3564;53.326;10.356;2023-04-12T08:20:36;5.10;;;2.50;;
7045;SDS011;3564;53.326;10.356;2023-04-12T08:23:04;4.10;;;2.40;;
7045;SDS011;3564;53.326;10.356;2023-04-12T08:25:33;2.77;;;2.30;;
7045;SDS011;3564;53.326;10.356;2023-04-12T08:27:59;3.07;;;2.10;;
7045;SDS011;3564;53.326;10.356;2023-04-12T08:30:27;3.20;;;2.27;;
7045;SDS011;3564;53.326;10.356;2023-04-12T08:32:53;3.47;;;2.23;;
7045;SDS011;3564;53.326;10.356;2023-04-12T08:35:18;4.50;;;2.57;;
7045;SDS011;3564;53.326;10.356;2023-04-12T08:37:53;2.80;;;2.20;;
7045;SDS011;3564;53.326;10.356;2023-04-12T08:40:18;5.00;;;2.00;;
7045;SDS011;3564;53.326;10.356;2023-04-12T08:42:45;2.77;;;2.10;;
7045;SDS011;3564;53.326;10.356;2023-04-12T08:45:11;6.03;;;2.83;;
7045;SDS011;3564;53.326;10.356;2023-04-12T08:47:38;6.20;;;2.10;;
7045;SDS011;3564;53.326;10.356;2023-04-12T08:50:08;4.23;;;2.50;;
7045;SDS011;3564;53.326;10.356;2023-04-12T08:52:37;4.30;;;2.20;;
7045;SDS011;3564;53.326;10.356;2023-04-12T08:55:08;5.70;;;2.60;;
7045;SDS011;3564;53.326;10.356;2023-04-12T08:57:38;3.13;;;2.00;;
7045;SDS011;3564;53.326;10.356;2023-04-12T09:00:06;4.20;;;2.67;;
7045;SDS011;3564;53.326;10.356;2023-04-12T09:02:35;4.67;;;2.50;;
7045;SDS011;3564;53.326;10.356;2023-04-12T09:05:02;2.87;;;2.43;;
7045;SDS011;3564;53.326;10.356;2023-04-12T09:07:28;2.87;;;2.20;;
7045;SDS011;3564;53.326;10.356;2023-04-12T09:09:55;4.03;;;2.07;;
7045;SDS011;3564;53.326;10.356;2023-04-12T09:12:25;4.03;;;1.90;;
7045;SDS011;3564;53.326;10.356;2023-04-12T09:15:04;2.93;;;2.30;;
7045;SDS011;3564;53.326;10.356;2023-04-12T09:17:34;5.83;;;1.87;;
7045;SDS011;3564;53.326;10.356;2023-04-12T09:22:48;2.47;;;2.03;;
7045;SDS011;3564;53.326;10.356;2023-04-12T09:25:14;4.03;;;2.13;;
7045;SDS011;3564;53.326;10.356;2023-04-12T09:27:46;4.27;;;2.20;;
7045;SDS011;3564;53.326;10.356;2023-04-12T09:30:16;4.60;;;2.13;;
7045;SDS011;3564;53.326;10.356;2023-04-12T09:32:43;4.03;;;2.43;;
7045;SDS011;3564;53.326;10.356;2023-04-12T09:35:09;2.47;;;2.03;;
7045;SDS011;3564;53.326;10.356;2023-04-12T09:37:35;3.97;;;2.17;;
7045;SDS011;3564;53.326;10.356;2023-04-12T09:40:02;5.83;;;2.53;;
7045;SDS011;3564;53.326;10.356;2023-04-12T09:42:29;5.70;;;2.10;;
7045;SDS011;3564;53.326;10.356;2023-04-12T09:44:57;3.50;;;2.33;;
7045;SDS011;3564;53.326;10.356;2023-04-12T09:47:36;5.20;;;2.73;;
7045;SDS011;3564;53.326;10.356;2023-04-12T09:50:03;6.03;;;2.60;;
7045;SDS011;3564;53.326;10.356;2023-04-12T09:52:34;4.80;;;2.30;;
7045;SDS011;3564;53.326;10.356;2023-04-12T09:55:01;5.60;;;2.20;;
7045;SDS011;3564;53.326;10.356;2023-04-12T09:57:37;3.27;;;2.20;;
7045;SDS011;3564;53.326;10.356;2023-04-12T10:00:11;4.17;;;2.00;;
7045;SDS011;3564;53.326;10.356;2023-04-12T10:02:41;2.47;;;1.57;;
7045;SDS011;3564;53.326;10.356;2023-04-12T10:05:12;5.97;;;2.80;;
7045;SDS011;3564;53.326;10.356;2023-04-12T10:07:40;6.03;;;2.70;;
7045;SDS011;3564;53.326;10.356;2023-04-12T10:10:07;7.40;;;2.53;;
7045;SDS011;3564;53.326;10.356;2023-04-12T10:12:36;5.80;;;1.90;;
7045;SDS011;3564;53.326;10.356;2023-04-12T10:15:03;4.87;;;2.50;;
7045;SDS011;3564;53.326;10.356;2023-04-12T10:17:36;4.73;;;1.93;;
7045;SDS011;3564;53.326;10.356;2023-04-12T10:20:10;3.80;;;1.93;;
7045;SDS011;3564;53.326;10.356;2023-04-12T10:22:44;2.27;;;1.60;;
7045;SDS011;3564;53.326;10.356;2023-04-12T10:25:15;3.30;;;1.90;;
7045;SDS011;3564;53.326;10.356;2023-04-12T10:27:43;4.03;;;2.30;;
7045;SDS011;3564;53.326;10.356;2023-04-12T10:30:19;4.00;;;2.17;;
7045;SDS011;3564;53.326;10.356;2023-04-12T10:35:26;6.77;;;2.40;;
7045;SDS011;3564;53.326;10.356;2023-04-12T10:37:59;3.70;;;2.20;;
7045;SDS011;3564;53.326;10.356;2023-04-12T10:40:29;6.67;;;2.37;;
7045;SDS011;3564;53.326;10.356;2023-04-12T10:45:47;4.73;;;2.10;;
7045;SDS011;3564;53.326;10.356;2023-04-12T10:49:00;7.93;;;3.00;;
7045;SDS011;3564;53.326;10.356;2023-04-12T10:56:38;5.07;;;2.10;;
7045;SDS011;3564;53.326;10.356;2023-04-12T10:59:11;3.47;;;1.80;;
7045;SDS011;3564;53.326;10.356;2023-04-12T11:01:38;4.97;;;2.20;;
7045;SDS011;3564;53.326;10.356;2023-04-12T11:04:12;3.50;;;2.10;;
7045;SDS011;3564;53.326;10.356;2023-04-12T11:09:36;5.90;;;2.27;;
7045;SDS011;3564;53.326;10.356;2023-04-12T11:14:28;5.23;;;2.73;;
7045;SDS011;3564;53.326;10.356;2023-04-12T11:19:33;3.67;;;2.37;;
7045;SDS011;3564;53.326;10.356;2023-04-12T11:22:04;7.50;;;2.77;;
7045;SDS011;3564;53.326;10.356;2023-04-12T11:24:38;4.87;;;2.60;;
7045;SDS011;3564;53.326;10.356;2023-04-12T11:27:04;4.50;;;2.33;;
7045;SDS011;3564;53.326;10.356;2023-04-12T11:29:30;4.57;;;2.97;;
7045;SDS011;3564;53.326;10.356;2023-04-12T11:31:58;4.60;;;3.50;;
7045;SDS011;3564;53.326;10.356;2023-04-12T11:34:30;4.10;;;2.70;;
7045;SDS011;3564;53.326;10.356;2023-04-12T11:36:57;4.43;;;3.07;;
7045;SDS011;3564;53.326;10.356;2023-04-12T11:39:26;5.20;;;3.13;;
7045;SDS011;3564;53.326;10.356;2023-04-12T11:41:52;5.73;;;3.13;;
7045;SDS011;3564;53.326;10.356;2023-04-12T11:44:21;7.73;;;3.30;;
7045;SDS011;3564;53.326;10.356;2023-04-12T11:46:47;5.17;;;3.97;;
7045;SDS011;3564;53.326;10.356;2023-04-12T11:49:13;7.37;;;3.73;;
7045;SDS011;3564;53.326;10.356;2023-04-12T11:51:43;6.00;;;3.17;;
7045;SDS011;3564;53.326;10.356;2023-04-12T11:54:09;5.90;;;3.40;;
7045;SDS011;3564;53.326;10.356;2023-04-12T11:56:36;4.03;;;3.03;;
7045;SDS011;3564;53.326;10.356;2023-04-12T11:59:02;5.70;;;3.13;;
7045;SDS011;3564;53.326;10.356;2023-04-12T12:01:28;4.30;;;2.40;;
7045;SDS011;3564;53.326;10.356;2023-04-12T12:03:55;5.93;;;2.50;;
7045;SDS011;3564;53.326;10.356;2023-04-12T12:06:22;4.83;;;2.47;;
7045;SDS011;3564;53.326;10.356;2023-04-12T12:08:49;3.80;;;1.97;;
7045;SDS011;3564;53.326;10.356;2023-04-12T12:11:15;6.60;;;3.07;;
7045;SDS011;3564;53.326;10.356;2023-04-12T12:16:13;4.20;;;1.87;;
7045;SDS011;3564;53.326;10.356;2023-04-12T12:18:39;2.97;;;1.90;;
7045;SDS011;3564;53.326;10.356;2023-04-12T12:21:12;2.73;;;1.90;;
7045;SDS011;3564;53.326;10.356;2023-04-12T12:23:42;3.77;;;2.00;;
7045;SDS011;3564;53.326;10.356;2023-04-12T12:26:08;6.57;;;4.00;;
7045;SDS011;3564;53.326;10.356;2023-04-12T12:28:39;4.77;;;2.77;;
7045;SDS011;3564;53.326;10.356;2023-04-12T12:31:05;2.30;;;1.80;;
7045;SDS011;3564;53.326;10.356;2023-04-12T12:33:36;3.73;;;1.67;;
7045;SDS011;3564;53.326;10.356;2023-04-12T12:36:03;2.90;;;1.60;;
7045;SDS011;3564;53.326;10.356;2023-04-12T12:38:35;2.30;;;1.50;;
7045;SDS011;3564;53.326;10.356;2023-04-12T12:43:52;3.20;;;2.67;;
7045;SDS011;3564;53.326;10.356;2023-04-12T12:46:18;3.57;;;1.90;;
7045;SDS011;3564;53.326;10.356;2023-04-12T12:48:44;2.60;;;2.20;;
7045;SDS011;3564;53.326;10.356;2023-04-12T12:51:15;2.60;;;1.77;;
7045;SDS011;3564;53.326;10.356;2023-04-12T12:53:44;5.00;;;2.00;;
7045;SDS011;3564;53.326;10.356;2023-04-12T12:56:10;2.93;;;1.70;;
7045;SDS011;3564;53.326;10.356;2023-04-12T12:58:37;4.00;;;2.27;;
7045;SDS011;3564;53.326;10.356;2023-04-12T13:01:07;3.13;;;1.97;;
7045;SDS011;3564;53.326;10.356;2023-04-12T13:03:33;4.97;;;2.00;;
7045;SDS011;3564;53.326;10.356;2023-04-12T13:05:58;2.90;;;1.57;;
7045;SDS011;3564;53.326;10.356;2023-04-12T13:08:25;2.27;;;1.70;;
7045;SDS011;3564;53.326;10.356;2023-04-12T13:10:51;2.43;;;1.90;;
7045;SDS011;3564;53.326;10.356;2023-04-12T13:13:17;3.57;;;1.77;;
7045;SDS011;3564;53.326;10.356;2023-04-12T13:15:43;4.50;;;2.20;;
7045;SDS011;3564;53.326;10.356;2023-04-12T13:18:10;4.20;;;2.00;;
7045;SDS011;3564;53.326;10.356;2023-04-12T13:20:39;4.30;;;2.23;;
7045;SDS011;3564;53.326;10.356;2023-04-12T13:23:05;3.33;;;1.90;;
7045;SDS011;3564;53.326;10.356;2023-04-12T13:25:31;4.27;;;2.13;;
7045;SDS011;3564;53.326;10.356;2023-04-12T13:27:56;2.97;;;1.93;;
7045;SDS011;3564;53.326;10.356;2023-04-12T13:30:25;4.63;;;2.43;;
7045;SDS011;3564;53.326;10.356;2023-04-12T13:32:52;3.90;;;2.60;;
7045;SDS011;3564;53.326;10.356;2023-04-12T13:35:21;4.20;;;2.17;;
7045;SDS011;3564;53.326;10.356;2023-04-12T13:37:46;2.27;;;1.90;;
7045;SDS011;3564;53.326;10.356;2023-04-12T13:40:21;3.77;;;2.43;;
7045;SDS011;3564;53.326;10.356;2023-04-12T13:42:47;3.07;;;2.10;;
7045;SDS011;3564;53.326;10.356;2023-04-12T13:45:12;4.90;;;2.40;;
7045;SDS011;3564;53.326;10.356;2023-04-12T13:47:38;2.80;;;2.00;;
7045;SDS011;3564;53.326;10.356;2023-04-12T13:50:04;6.27;;;2.50;;
7045;SDS011;3564;53.326;10.356;2023-04-12T13:52:33;4.13;;;2.37;;
7045;SDS011;3564;53.326;10.356;2023-04-12T13:54:58;3.53;;;2.43;;
7045;SDS011;3564;53.326;10.356;2023-04-12T13:57:24;3.60;;;2.10;;
7045;SDS011;3564;53.326;10.356;2023-04-12T13:59:52;4.87;;;2.10;;
7045;SDS011;3564;53.326;10.356;2023-04-12T14:02:21;2.10;;;1.90;;
7045;SDS011;3564;53.326;10.356;2023-04-12T14:04:50;2.53;;;2.27;;
7045;SDS011;3564;53.326;10.356;2023-04-12T14:07:17;2.53;;;2.00;;
7045;SDS011;3564;53.326;10.356;2023-04-12T14:09:42;3.83;;;2.03;;
7045;SDS011;3564;53.326;10.356;2023-04-12T14:12:08;3.23;;;1.83;;
7045;SDS011;3564;53.326;10.356;2023-04-12T14:14:37;3.40;;;2.37;;
7045;SDS011;3564;53.326;10.356;2023-04-12T14:17:02;3.90;;;1.93;;
7045;SDS011;3564;53.326;10.356;2023-04-12T14:19:28;2.83;;;1.93;;
7045;SDS011;3564;53.326;10.356;2023-04-12T14:21:53;4.63;;;1.80;;
7045;SDS011;3564;53.326;10.356;2023-04-12T14:24:19;3.93;;;1.90;;
7045;SDS011;3564;53.326;10.356;2023-04-12T14:26:45;3.77;;;2.37;;
7045;SDS011;3564;53.326;10.356;2023-04-12T14:29:17;5.03;;;1.90;;
7045;SDS011;3564;53.326;10.356;2023-04-12T14:31:43;4.37;;;2.10;;
7045;SDS011;3564;53.326;10.356;2023-04-12T14:34:17;4.40;;;1.50;;
7045;SDS011;3564;53.326;10.356;2023-04-12T14:36:43;3.37;;;1.77;;
7045;SDS011;3564;53.326;10.356;2023-04-12T14:39:08;2.27;;;1.77;;
7045;SDS011;3564;53.326;10.356;2023-04-12T14:41:35;4.87;;;1.93;;
7045;SDS011;3564;53.326;10.356;2023-04-12T14:44:01;4.30;;;1.70;;
7045;SDS011;3564;53.326;10.356;2023-04-12T14:46:27;1.70;;;1.60;;
7045;SDS011;3564;53.326;10.356;2023-04-12T14:48:55;3.43;;;1.90;;
7045;SDS011;3564;53.326;10.356;2023-04-12T14:51:23;3.80;;;1.60;;
7045;SDS011;3564;53.326;10.356;2023-04-12T14:53:49;2.60;;;1.80;;
7045;SDS011;3564;53.326;10.356;2023-04-12T14:56:15;2.77;;;1.60;;
7045;SDS011;3564;53.326;10.356;2023-04-12T14:58:44;1.97;;;1.60;;
7045;SDS011;3564;53.326;10.356;2023-04-12T15:01:10;2.93;;;1.70;;
7045;SDS011;3564;53.326;10.356;2023-04-12T15:03:37;2.70;;;1.93;;
7045;SDS011;3564;53.326;10.356;2023-04-12T15:06:05;2.80;;;1.87;;
7045;SDS011;3564;53.326;10.356;2023-04-12T15:08:32;3.70;;;1.87;;
7045;SDS011;3564;53.326;10.356;2023-04-12T15:10:58;2.80;;;1.83;;
7045;SDS011;3564;53.326;10.356;2023-04-12T15:13:24;2.40;;;2.07;;
7045;SDS011;3564;53.326;10.356;2023-04-12T15:15:51;2.43;;;2.10;;
7045;SDS011;3564;53.326;10.356;2023-04-12T15:18:17;2.80;;;1.90;;
7045;SDS011;3564;53.326;10.356;2023-04-12T15:20:42;3.07;;;2.10;;
7045;SDS011;3564;53.326;10.356;2023-04-12T15:23:08;2.83;;;1.80;;
7045;SDS011;3564;53.326;10.356;2023-04-12T15:25:34;2.73;;;2.00;;
7045;SDS011;3564;53.326;10.356;2023-04-12T15:27:59;3.70;;;1.60;;
7045;SDS011;3564;53.326;10.356;2023-04-12T15:30:25;2.17;;;1.97;;
7045;SDS011;3564;53.326;10.356;2023-04-12T15:32:54;2.97;;;1.73;;
7045;SDS011;3564;53.326;10.356;2023-04-12T15:35:20;3.80;;;2.33;;
7045;SDS011;3564;53.326;10.356;2023-04-12T15:37:46;2.90;;;2.17;;
7045;SDS011;3564;53.326;10.356;2023-04-12T15:40:11;2.27;;;2.00;;
7045;SDS011;3564;53.326;10.356;2023-04-12T15:42:38;3.13;;;2.17;;
7045;SDS011;3564;53.326;10.356;2023-04-12T15:45:05;2.50;;;2.17;;